Terminal Aerodrome Forecast
Issued by NWS Tuscon, AZ

Home | Current Version | Previous Version | Text Only | Print | Product List | Glossary On
Versions: 1 2 3 4 5 6 7 8 9 10 11 12 13
000
FTUS45 KTWC 282300
TAFTUS
TAF
KTUS 282339Z 0100/0124 21012G18KT P6SM SCT070 SCT250
     FM010300 23008KT P6SM SCT070 SCT250
     FM010900 15004KT P6SM SCT070
     FM011700 17012KT P6SM BKN070
     FM012100 22014G22KT P6SM SCT040 BKN060=

USA.gov is the U.S. government's official web portal to all federal, state and local government web resources and services.